sensor_id;sensor_type;location;lat;lon;timestamp;pressure;altitude;pressure_sealevel;temperature;humidity
32761;BME280;19126;47.472;7.850;2022-07-23T00:00:23;96708.03;;;20.26;55.16
32761;BME280;19126;47.472;7.850;2022-07-23T00:02:50;96707.56;;;20.29;53.38
32761;BME280;19126;47.472;7.850;2022-07-23T00:05:17;96704.91;;;20.29;51.07
32761;BME280;19126;47.472;7.850;2022-07-23T00:07:44;96702.50;;;20.28;48.00
32761;BME280;19126;47.472;7.850;2022-07-23T00:10:12;96704.59;;;20.26;45.58
32761;BME280;19126;47.472;7.850;2022-07-23T00:12:41;96697.38;;;20.26;42.51
32761;BME280;19126;47.472;7.850;2022-07-23T00:15:10;96691.56;;;20.29;40.86
32761;BME280;19126;47.472;7.850;2022-07-23T00:17:37;96684.97;;;20.32;39.15
32761;BME280;19126;47.472;7.850;2022-07-23T00:20:06;96688.91;;;20.29;38.92
32761;BME280;19126;47.472;7.850;2022-07-23T00:22:33;96684.97;;;20.32;41.55
32761;BME280;19126;47.472;7.850;2022-07-23T00:25:00;96691.56;;;20.29;43.00
32761;BME280;19126;47.472;7.850;2022-07-23T00:27:27;96683.00;;;20.27;46.93
32761;BME280;19126;47.472;7.850;2022-07-23T00:29:56;96670.38;;;20.23;48.88
32761;BME280;19126;47.472;7.850;2022-07-23T00:32:23;96674.31;;;20.20;49.22
32761;BME280;19126;47.472;7.850;2022-07-23T00:34:50;96676.28;;;20.13;48.32
32761;BME280;19126;47.472;7.850;2022-07-23T00:37:18;96666.66;;;20.12;45.04
32761;BME280;19126;47.472;7.850;2022-07-23T00:39:45;96669.47;;;20.05;42.45
32761;BME280;19126;47.472;7.850;2022-07-23T00:42:12;96662.53;;;20.04;42.18
32761;BME280;19126;47.472;7.850;2022-07-23T00:44:39;96656.94;;;20.05;39.32
32761;BME280;19126;47.472;7.850;2022-07-23T00:47:08;96662.28;;;20.05;40.54
32761;BME280;19126;47.472;7.850;2022-07-23T00:49:35;96656.94;;;20.05;40.30
32761;BME280;19126;47.472;7.850;2022-07-23T00:52:02;96653.22;;;20.06;38.77
32761;BME280;19126;47.472;7.850;2022-07-23T00:54:30;96651.59;;;20.05;37.70
32761;BME280;19126;47.472;7.850;2022-07-23T00:56:57;96655.31;;;20.04;38.13
32761;BME280;19126;47.472;7.850;2022-07-23T00:59:24;96651.50;;;20.00;37.53
32761;BME280;19126;47.472;7.850;2022-07-23T01:01:52;96653.00;;;19.96;42.28
32761;BME280;19126;47.472;7.850;2022-07-23T01:04:20;96646.16;;;19.88;44.84
32761;BME280;19126;47.472;7.850;2022-07-23T01:06:47;96646.78;;;19.90;46.91
32761;BME280;19126;47.472;7.850;2022-07-23T01:09:15;96658.66;;;19.88;47.19
32761;BME280;19126;47.472;7.850;2022-07-23T01:11:43;96664.81;;;19.76;47.68
32761;BME280;19126;47.472;7.850;2022-07-23T01:14:12;96658.66;;;19.76;49.11
32761;BME280;19126;47.472;7.850;2022-07-23T01:16:40;96647.41;;;19.74;48.91
32761;BME280;19126;47.472;7.850;2022-07-23T01:19:08;96623.69;;;19.72;48.64
32761;BME280;19126;47.472;7.850;2022-07-23T01:21:39;96589.81;;;19.73;44.79
32761;BME280;19126;47.472;7.850;2022-07-23T01:24:09;96584.06;;;19.64;44.04
32761;BME280;19126;47.472;7.850;2022-07-23T01:26:37;96607.34;;;19.57;43.05
32761;BME280;19126;47.472;7.850;2022-07-23T01:29:05;96615.91;;;19.59;46.24
32761;BME280;19126;47.472;7.850;2022-07-23T01:31:32;96610.13;;;19.62;42.88
32761;BME280;19126;47.472;7.850;2022-07-23T01:34:00;96608.25;;;19.62;39.98
32761;BME280;19126;47.472;7.850;2022-07-23T01:36:27;96608.97;;;19.58;37.81
32761;BME280;19126;47.472;7.850;2022-07-23T01:38:54;96613.84;;;19.61;35.45
32761;BME280;19126;47.472;7.850;2022-07-23T01:41:23;96629.56;;;19.62;33.95
32761;BME280;19126;47.472;7.850;2022-07-23T01:43:50;96634.91;;;19.62;33.66
32761;BME280;19126;47.472;7.850;2022-07-23T01:46:17;96634.91;;;19.62;33.70
32761;BME280;19126;47.472;7.850;2022-07-23T01:48:44;96641.28;;;19.61;34.05
32761;BME280;19126;47.472;7.850;2022-07-23T01:51:12;96639.91;;;19.59;34.96
32761;BME280;19126;47.472;7.850;2022-07-23T01:53:39;96653.81;;;19.61;38.20
32761;BME280;19126;47.472;7.850;2022-07-23T01:56:06;96670.59;;;19.61;45.57
32761;BME280;19126;47.472;7.850;2022-07-23T01:58:35;96687.53;;;19.67;48.52
32761;BME280;19126;47.472;7.850;2022-07-23T02:01:02;96705.94;;;19.69;55.81
32761;BME280;19126;47.472;7.850;2022-07-23T02:03:29;96700.00;;;19.67;55.93
32761;BME280;19126;47.472;7.850;2022-07-23T02:05:56;96695.06;;;19.70;55.24
32761;BME280;19126;47.472;7.850;2022-07-23T02:08:23;96682.19;;;19.67;56.41
32761;BME280;19126;47.472;7.850;2022-07-23T02:10:51;96676.63;;;19.69;58.42
32761;BME280;19126;47.472;7.850;2022-07-23T02:13:19;96647.09;;;19.70;53.49
32761;BME280;19126;47.472;7.850;2022-07-23T02:15:47;96643.59;;;19.70;48.25
32761;BME280;19126;47.472;7.850;2022-07-23T02:18:15;96650.31;;;19.72;47.68
32761;BME280;19126;47.472;7.850;2022-07-23T02:20:42;96656.59;;;19.66;54.50
32761;BME280;19126;47.472;7.850;2022-07-23T02:23:10;96661.56;;;19.62;60.14
32761;BME280;19126;47.472;7.850;2022-07-23T02:25:37;96660.16;;;19.60;64.81
32761;BME280;19126;47.472;7.850;2022-07-23T02:28:05;96667.34;;;19.59;66.91
32761;BME280;19126;47.472;7.850;2022-07-23T02:30:32;96661.69;;;19.56;66.22
32761;BME280;19126;47.472;7.850;2022-07-23T02:33:00;96671.97;;;19.52;65.96
32761;BME280;19126;47.472;7.850;2022-07-23T02:35:28;96669.56;;;19.51;60.33
32761;BME280;19126;47.472;7.850;2022-07-23T02:37:55;96669.56;;;19.51;56.50
32761;BME280;19126;47.472;7.850;2022-07-23T02:40:22;96666.88;;;19.51;54.12
32761;BME280;19126;47.472;7.850;2022-07-23T02:42:49;96662.13;;;19.53;58.84
32761;BME280;19126;47.472;7.850;2022-07-23T02:45:16;96666.06;;;19.50;63.42
32761;BME280;19126;47.472;7.850;2022-07-23T02:47:44;96668.25;;;19.53;69.35
32761;BME280;19126;47.472;7.850;2022-07-23T02:50:12;96663.75;;;19.54;71.55
32761;BME280;19126;47.472;7.850;2022-07-23T02:52:39;96655.78;;;19.54;70.46
32761;BME280;19126;47.472;7.850;2022-07-23T02:55:07;96653.56;;;19.51;67.08
32761;BME280;19126;47.472;7.850;2022-07-23T02:57:37;96647.19;;;19.52;69.23
32761;BME280;19126;47.472;7.850;2022-07-23T03:00:06;96654.16;;;19.53;74.56
32761;BME280;19126;47.472;7.850;2022-07-23T03:02:34;96675.91;;;19.50;78.89
32761;BME280;19126;47.472;7.850;2022-07-23T03:05:01;96691.44;;;19.53;81.16
32761;BME280;19126;47.472;7.850;2022-07-23T03:07:30;96695.50;;;19.55;79.97
32761;BME280;19126;47.472;7.850;2022-07-23T03:09:57;96699.56;;;19.58;78.90
32761;BME280;19126;47.472;7.850;2022-07-23T03:12:24;96701.41;;;19.57;81.41
32761;BME280;19126;47.472;7.850;2022-07-23T03:14:51;96716.59;;;19.57;79.37
32761;BME280;19126;47.472;7.850;2022-07-23T03:17:19;96735.25;;;19.57;76.98
32761;BME280;19126;47.472;7.850;2022-07-23T03:19:46;96711.47;;;19.55;77.25
32761;BME280;19126;47.472;7.850;2022-07-23T03:22:13;96685.66;;;19.56;79.10
32761;BME280;19126;47.472;7.850;2022-07-23T03:24:41;96684.03;;;19.55;77.33
32761;BME280;19126;47.472;7.850;2022-07-23T03:27:21;96698.97;;;19.56;75.84
32761;BME280;19126;47.472;7.850;2022-07-23T03:29:48;96711.94;;;19.52;78.34
32761;BME280;19126;47.472;7.850;2022-07-23T03:32:15;96701.53;;;19.51;79.97
32761;BME280;19126;47.472;7.850;2022-07-23T03:34:43;96698.94;;;19.44;82.56
32761;BME280;19126;47.472;7.850;2022-07-23T03:37:10;96705.19;;;19.38;82.18
32761;BME280;19126;47.472;7.850;2022-07-23T03:39:37;96704.41;;;19.37;82.59
32761;BME280;19126;47.472;7.850;2022-07-23T03:42:06;96723.16;;;19.42;85.60
32761;BME280;19126;47.472;7.850;2022-07-23T03:44:34;96729.41;;;19.36;88.19
32761;BME280;19126;47.472;7.850;2022-07-23T03:47:02;96743.06;;;19.40;89.79
32761;BME280;19126;47.472;7.850;2022-07-23T03:49:29;96754.31;;;19.42;94.59
32761;BME280;19126;47.472;7.850;2022-07-23T03:51:57;96766.91;;;19.35;94.21
32761;BME280;19126;47.472;7.850;2022-07-23T03:54:24;96772.69;;;19.31;89.33
32761;BME280;19126;47.472;7.850;2022-07-23T03:56:51;96774.91;;;19.35;86.87
32761;BME280;19126;47.472;7.850;2022-07-23T03:59:20;96784.16;;;19.32;89.24
32761;BME280;19126;47.472;7.850;2022-07-23T04:01:47;96762.28;;;19.30;86.68
32761;BME280;19126;47.472;7.850;2022-07-23T04:04:14;96711.28;;;19.14;78.37
32761;BME280;19126;47.472;7.850;2022-07-23T04:06:41;96714.84;;;19.08;77.60
32761;BME280;19126;47.472;7.850;2022-07-23T04:09:08;96733.13;;;19.04;70.56
32761;BME280;19126;47.472;7.850;2022-07-23T04:11:35;96733.94;;;19.05;63.67
32761;BME280;19126;47.472;7.850;2022-07-23T04:14:03;96745.25;;;19.00;60.57
32761;BME280;19126;47.472;7.850;2022-07-23T04:16:31;96754.94;;;18.95;56.64
32761;BME280;19126;47.472;7.850;2022-07-23T04:18:58;96734.28;;;18.90;50.32
32761;BME280;19126;47.472;7.850;2022-07-23T04:21:26;96738.91;;;18.83;48.27
32761;BME280;19126;47.472;7.850;2022-07-23T04:23:53;96731.94;;;18.82;45.63
32761;BME280;19126;47.472;7.850;2022-07-23T04:26:20;96726.88;;;18.80;42.08
32761;BME280;19126;47.472;7.850;2022-07-23T04:28:47;96731.34;;;18.80;38.35
32761;BME280;19126;47.472;7.850;2022-07-23T04:31:14;96740.16;;;18.80;35.25
32761;BME280;19126;47.472;7.850;2022-07-23T04:33:43;96744.44;;;18.81;30.95
32761;BME280;19126;47.472;7.850;2022-07-23T04:36:10;96740.63;;;18.77;30.95
32761;BME280;19126;47.472;7.850;2022-07-23T04:38:37;96727.31;;;18.77;29.73
32761;BME280;19126;47.472;7.850;2022-07-23T04:41:04;96731.94;;;18.82;27.43
32761;BME280;19126;47.472;7.850;2022-07-23T04:43:32;96756.94;;;18.81;28.76
32761;BME280;19126;47.472;7.850;2022-07-23T04:45:59;96758.34;;;18.83;28.74
32761;BME280;19126;47.472;7.850;2022-07-23T04:48:26;96761.66;;;18.79;29.41
32761;BME280;19126;47.472;7.850;2022-07-23T04:50:54;96754.06;;;18.82;30.47
32761;BME280;19126;47.472;7.850;2022-07-23T04:53:22;96752.00;;;18.84;30.59
32761;BME280;19126;47.472;7.850;2022-07-23T04:55:49;96755.84;;;18.88;28.26
32761;BME280;19126;47.472;7.850;2022-07-23T04:58:16;96744.94;;;18.90;25.96
32761;BME280;19126;47.472;7.850;2022-07-23T05:00:43;96731.44;;;18.92;23.42
32761;BME280;19126;47.472;7.850;2022-07-23T05:03:10;96736.75;;;18.92;23.88
32761;BME280;19126;47.472;7.850;2022-07-23T05:05:37;96733.22;;;18.98;24.29
32761;BME280;19126;47.472;7.850;2022-07-23T05:08:06;96733.13;;;19.04;25.81
32761;BME280;19126;47.472;7.850;2022-07-23T05:10:33;96730.72;;;19.15;24.94
32761;BME280;19126;47.472;7.850;2022-07-23T05:13:00;96734.09;;;19.22;23.97
32761;BME280;19126;47.472;7.850;2022-07-23T05:15:27;96738.19;;;19.25;23.15
32761;BME280;19126;47.472;7.850;2022-07-23T05:17:55;96744.09;;;19.27;25.54
32761;BME280;19126;47.472;7.850;2022-07-23T05:20:22;96746.50;;;19.28;25.95
32761;BME280;19126;47.472;7.850;2022-07-23T05:22:49;96748.13;;;19.29;26.32
32761;BME280;19126;47.472;7.850;2022-07-23T05:25:18;96743.06;;;19.28;24.82
32761;BME280;19126;47.472;7.850;2022-07-23T05:27:45;96750.22;;;19.27;26.00
32761;BME280;19126;47.472;7.850;2022-07-23T05:30:12;96758.44;;;19.26;29.02
32761;BME280;19126;47.472;7.850;2022-07-23T05:32:40;96773.97;;;19.29;29.47
32761;BME280;19126;47.472;7.850;2022-07-23T05:35:08;96772.09;;;19.29;28.70
32761;BME280;19126;47.472;7.850;2022-07-23T05:37:35;96778.25;;;19.30;28.50
32761;BME280;19126;47.472;7.850;2022-07-23T05:40:03;96784.03;;;19.27;27.66
32761;BME280;19126;47.472;7.850;2022-07-23T05:42:34;96774.41;;;19.26;29.09
32761;BME280;19126;47.472;7.850;2022-07-23T05:45:02;96783.44;;;19.25;30.25
32761;BME280;19126;47.472;7.850;2022-07-23T05:47:40;96779.03;;;19.18;29.82
32761;BME280;19126;47.472;7.850;2022-07-23T05:50:08;96779.34;;;19.10;28.21
32761;BME280;19126;47.472;7.850;2022-07-23T05:52:36;96773.19;;;19.10;27.48
32761;BME280;19126;47.472;7.850;2022-07-23T05:55:04;96780.97;;;19.11;26.66
32761;BME280;19126;47.472;7.850;2022-07-23T05:57:31;96784.56;;;19.17;22.93
32761;BME280;19126;47.472;7.850;2022-07-23T05:59:59;96779.47;;;19.15;24.08
32761;BME280;19126;47.472;7.850;2022-07-23T06:02:27;96781.00;;;19.23;24.66
32761;BME280;19126;47.472;7.850;2022-07-23T06:04:54;96778.56;;;19.22;24.88
32761;BME280;19126;47.472;7.850;2022-07-23T06:07:21;96786.59;;;19.33;24.25
32761;BME280;19126;47.472;7.850;2022-07-23T06:09:48;96789.19;;;19.40;22.63
32761;BME280;19126;47.472;7.850;2022-07-23T06:12:16;96786.06;;;19.43;24.35
32761;BME280;19126;47.472;7.850;2022-07-23T06:14:43;96782.94;;;19.46;28.77
32761;BME280;19126;47.472;7.850;2022-07-23T06:17:11;96787.31;;;19.41;29.29
32761;BME280;19126;47.472;7.850;2022-07-23T06:19:39;96796.34;;;19.40;30.47
32761;BME280;19126;47.472;7.850;2022-07-23T06:22:06;96797.50;;;19.44;29.27
32761;BME280;19126;47.472;7.850;2022-07-23T06:24:33;96801.47;;;19.41;36.46
32761;BME280;19126;47.472;7.850;2022-07-23T06:27:00;96819.06;;;19.42;37.43
32761;BME280;19126;47.472;7.850;2022-07-23T06:29:27;96831.63;;;19.54;35.87
32761;BME280;19126;47.472;7.850;2022-07-23T06:31:55;96832.59;;;19.71;32.35
32761;BME280;19126;47.472;7.850;2022-07-23T06:34:23;96829.44;;;19.93;29.90
32761;BME280;19126;47.472;7.850;2022-07-23T06:36:50;96834.00;;;20.16;27.53
32761;BME280;19126;47.472;7.850;2022-07-23T06:39:17;96835.38;;;20.19;33.57
32761;BME280;19126;47.472;7.850;2022-07-23T06:41:45;96842.00;;;20.16;44.22
32761;BME280;19126;47.472;7.850;2022-07-23T06:44:12;96859.25;;;20.14;46.80
32761;BME280;19126;47.472;7.850;2022-07-23T06:46:39;96863.44;;;20.10;47.98
32761;BME280;19126;47.472;7.850;2022-07-23T06:49:06;96863.56;;;20.03;47.69
32761;BME280;19126;47.472;7.850;2022-07-23T06:51:35;96866.41;;;19.89;50.39
32761;BME280;19126;47.472;7.850;2022-07-23T06:54:03;96860.91;;;19.84;51.01
32761;BME280;19126;47.472;7.850;2022-07-23T06:56:30;96865.78;;;19.87;51.61
32761;BME280;19126;47.472;7.850;2022-07-23T06:58:57;96864.81;;;20.00;47.39
32761;BME280;19126;47.472;7.850;2022-07-23T07:01:24;96864.13;;;20.05;45.68
32761;BME280;19126;47.472;7.850;2022-07-23T07:03:51;96858.81;;;20.05;48.21
32761;BME280;19126;47.472;7.850;2022-07-23T07:06:19;96862.72;;;20.02;51.95
32761;BME280;19126;47.472;7.850;2022-07-23T07:08:47;96858.81;;;20.05;55.72
32761;BME280;19126;47.472;7.850;2022-07-23T07:11:15;96839.91;;;20.18;55.34
32761;BME280;19126;47.472;7.850;2022-07-23T07:13:42;96830.41;;;20.23;55.51
32761;BME280;19126;47.472;7.850;2022-07-23T07:16:09;96845.38;;;20.24;61.72
32761;BME280;19126;47.472;7.850;2022-07-23T07:18:36;96845.03;;;20.32;60.66
32761;BME280;19126;47.472;7.850;2022-07-23T07:21:03;96848.16;;;20.41;59.35
32761;BME280;19126;47.472;7.850;2022-07-23T07:23:30;96850.59;;;20.54;53.49
32761;BME280;19126;47.472;7.850;2022-07-23T07:25:59;96858.13;;;20.69;49.44
32761;BME280;19126;47.472;7.850;2022-07-23T07:28:26;96854.19;;;20.72;53.74
32761;BME280;19126;47.472;7.850;2022-07-23T07:30:53;96857.19;;;20.87;53.30
32761;BME280;19126;47.472;7.850;2022-07-23T07:33:21;96865.69;;;20.84;57.67
32761;BME280;19126;47.472;7.850;2022-07-23T07:35:48;96865.78;;;20.89;65.61
32761;BME280;19126;47.472;7.850;2022-07-23T07:38:16;96860.69;;;20.88;75.90
32761;BME280;19126;47.472;7.850;2022-07-23T07:40:43;96865.31;;;20.92;68.73
32761;BME280;19126;47.472;7.850;2022-07-23T07:43:11;96872.75;;;21.02;61.70
32761;BME280;19126;47.472;7.850;2022-07-23T07:45:39;96871.56;;;21.10;57.96
32761;BME280;19126;47.472;7.850;2022-07-23T07:48:06;96883.28;;;21.21;54.23
32761;BME280;19126;47.472;7.850;2022-07-23T07:50:33;96879.19;;;21.30;52.51
32761;BME280;19126;47.472;7.850;2022-07-23T07:53:00;96872.94;;;21.25;64.03
32761;BME280;19126;47.472;7.850;2022-07-23T07:55:27;96867.13;;;21.28;67.92
32761;BME280;19126;47.472;7.850;2022-07-23T07:57:54;96864.13;;;21.12;79.13
32761;BME280;19126;47.472;7.850;2022-07-23T08:00:23;96861.03;;;21.03;85.19
32761;BME280;19126;47.472;7.850;2022-07-23T08:02:52;96853.13;;;21.08;78.30
32761;BME280;19126;47.472;7.850;2022-07-23T08:05:21;96847.41;;;21.05;72.98
32761;BME280;19126;47.472;7.850;2022-07-23T08:07:48;96845.56;;;21.05;70.56
32761;BME280;19126;47.472;7.850;2022-07-23T08:10:17;96845.22;;;21.02;66.54
32761;BME280;19126;47.472;7.850;2022-07-23T08:12:46;96847.09;;;21.01;65.92
32761;BME280;19126;47.472;7.850;2022-07-23T08:15:18;96851.03;;;21.11;61.09
32761;BME280;19126;47.472;7.850;2022-07-23T08:17:48;96859.94;;;21.16;63.27
32761;BME280;19126;47.472;7.850;2022-07-23T08:20:22;96862.22;;;21.36;70.58
32761;BME280;19126;47.472;7.850;2022-07-23T08:22:52;96856.75;;;21.43;90.84
32761;BME280;19126;47.472;7.850;2022-07-23T08:25:22;96860.84;;;21.92;87.51
32761;BME280;19126;47.472;7.850;2022-07-23T08:27:50;96859.41;;;22.35;97.97
32761;BME280;19126;47.472;7.850;2022-07-23T08:30:18;96869.03;;;22.88;98.47
32761;BME280;19126;47.472;7.850;2022-07-23T08:32:55;96860.91;;;22.82;100.00
32761;BME280;19126;47.472;7.850;2022-07-23T08:35:26;96867.91;;;23.06;100.00
32761;BME280;19126;47.472;7.850;2022-07-23T08:37:54;96874.09;;;23.06;100.00
32761;BME280;19126;47.472;7.850;2022-07-23T08:40:22;96871.88;;;22.81;100.00
32761;BME280;19126;47.472;7.850;2022-07-23T08:42:51;96875.31;;;22.98;100.00
32761;BME280;19126;47.472;7.850;2022-07-23T08:45:20;96876.69;;;23.01;100.00
32761;BME280;19126;47.472;7.850;2022-07-23T08:47:51;96878.75;;;23.16;100.00
32761;BME280;19126;47.472;7.850;2022-07-23T08:50:18;96878.69;;;23.55;100.00
32761;BME280;19126;47.472;7.850;2022-07-23T08:52:48;96880.53;;;23.77;100.00
32761;BME280;19126;47.472;7.850;2022-07-23T08:55:16;96887.13;;;23.92;100.00
32761;BME280;19126;47.472;7.850;2022-07-23T08:57:44;96882.28;;;23.89;100.00
32761;BME280;19126;47.472;7.850;2022-07-23T09:00:13;96881.13;;;23.57;100.00
32761;BME280;19126;47.472;7.850;2022-07-23T09:02:42;96881.38;;;23.55;100.00
32761;BME280;19126;47.472;7.850;2022-07-23T09:05:13;96882.25;;;23.61;100.00
32761;BME280;19126;47.472;7.850;2022-07-23T09:08:09;96875.50;;;23.59;100.00
32761;BME280;19126;47.472;7.850;2022-07-23T09:10:55;96875.78;;;23.57;100.00
32761;BME280;19126;47.472;7.850;2022-07-23T09:13:30;96875.84;;;23.90;100.00
32761;BME280;19126;47.472;7.850;2022-07-23T09:16:00;96878.91;;;23.76;100.00
32761;BME280;19126;47.472;7.850;2022-07-23T09:18:31;96869.19;;;23.70;100.00
32761;BME280;19126;47.472;7.850;2022-07-23T09:21:20;96871.56;;;23.66;100.00
32761;BME280;19126;47.472;7.850;2022-07-23T09:23:52;96872.63;;;23.65;100.00
32761;BME280;19126;47.472;7.850;2022-07-23T09:26:27;96870.72;;;23.88;100.00
32761;BME280;19126;47.472;7.850;2022-07-23T09:29:00;96865.41;;;24.21;100.00
32761;BME280;19126;47.472;7.850;2022-07-23T09:31:34;96864.88;;;24.24;100.00
32761;BME280;19126;47.472;7.850;2022-07-23T09:34:10;96862.47;;;24.60;100.00
32761;BME280;19126;47.472;7.850;2022-07-23T09:36:41;96867.72;;;24.44;100.00
32761;BME280;19126;47.472;7.850;2022-07-23T09:39:09;96863.47;;;24.49;100.00
32761;BME280;19126;47.472;7.850;2022-07-23T09:41:41;96866.88;;;24.39;100.00
32761;BME280;19126;47.472;7.850;2022-07-23T09:44:14;96885.06;;;24.32;100.00
32761;BME280;19126;47.472;7.850;2022-07-23T09:46:44;96875.88;;;24.22;100.00
32761;BME280;19126;47.472;7.850;2022-07-23T09:49:22;96884.50;;;24.29;100.00
32761;BME280;19126;47.472;7.850;2022-07-23T09:51:57;96872.22;;;24.01;100.00
32761;BME280;19126;47.472;7.850;2022-07-23T09:54:31;96885.56;;;23.96;100.00
32761;BME280;19126;47.472;7.850;2022-07-23T09:57:02;96892.47;;;24.19;100.00
32761;BME280;19126;47.472;7.850;2022-07-23T09:59:33;96881.94;;;24.07;100.00
32761;BME280;19126;47.472;7.850;2022-07-23T10:02:01;96887.38;;;24.18;100.00
32761;BME280;19126;47.472;7.850;2022-07-23T10:04:29;96888.09;;;24.40;100.00
32761;BME280;19126;47.472;7.850;2022-07-23T10:07:01;96893.59;;;24.56;100.00
32761;BME280;19126;47.472;7.850;2022-07-23T10:09:31;96888.75;;;24.58;100.00
32761;BME280;19126;47.472;7.850;2022-07-23T10:12:01;96898.44;;;24.59;100.00
32761;BME280;19126;47.472;7.850;2022-07-23T10:14:37;96894.75;;;24.70;100.00
32761;BME280;19126;47.472;7.850;2022-07-23T10:17:05;96896.44;;;24.77;100.00
32761;BME280;19126;47.472;7.850;2022-07-23T10:19:33;96887.94;;;24.95;100.00
32761;BME280;19126;47.472;7.850;2022-07-23T10:22:05;96880.28;;;25.20;100.00
32761;BME280;19126;47.472;7.850;2022-07-23T10:24:50;96891.53;;;25.16;100.00
32761;BME280;19126;47.472;7.850;2022-07-23T10:30:43;96890.28;;;25.35;98.95
32761;BME280;19126;47.472;7.850;2022-07-23T10:33:26;96891.38;;;25.44;99.87
32761;BME280;19126;47.472;7.850;2022-07-23T10:36:06;96884.25;;;25.86;98.96
32761;BME280;19126;47.472;7.850;2022-07-23T10:38:48;96890.47;;;26.07;96.98
32761;BME280;19126;47.472;7.850;2022-07-23T10:41:32;96885.50;;;25.47;95.49
32761;BME280;19126;47.472;7.850;2022-07-23T10:44:08;96888.56;;;25.87;96.07
32761;BME280;19126;47.472;7.850;2022-07-23T10:46:36;96890.44;;;25.97;94.50
32761;BME280;19126;47.472;7.850;2022-07-23T10:49:26;96889.13;;;25.99;94.63
32761;BME280;19126;47.472;7.850;2022-07-23T10:52:24;96874.63;;;26.26;95.25
32761;BME280;19126;47.472;7.850;2022-07-23T10:54:55;96873.25;;;26.34;94.16
32761;BME280;19126;47.472;7.850;2022-07-23T10:57:25;96874.59;;;26.68;94.94
32761;BME280;19126;47.472;7.850;2022-07-23T11:00:16;96881.59;;;26.63;92.81
32761;BME280;19126;47.472;7.850;2022-07-23T11:02:48;96872.91;;;27.03;91.17
32761;BME280;19126;47.472;7.850;2022-07-23T11:05:18;96875.22;;;27.35;84.00
32761;BME280;19126;47.472;7.850;2022-07-23T11:08:18;96879.97;;;26.62;84.30
32761;BME280;19126;47.472;7.850;2022-07-23T11:10:51;96882.09;;;26.81;84.26
32761;BME280;19126;47.472;7.850;2022-07-23T11:13:47;96881.22;;;27.17;86.01
32761;BME280;19126;47.472;7.850;2022-07-23T11:16:25;96882.25;;;27.31;85.51
32761;BME280;19126;47.472;7.850;2022-07-23T11:19:10;96885.56;;;27.13;85.86
32761;BME280;19126;47.472;7.850;2022-07-23T11:21:49;96877.16;;;27.19;89.02
32761;BME280;19126;47.472;7.850;2022-07-23T11:24:22;96885.09;;;26.85;85.99
32761;BME280;19126;47.472;7.850;2022-07-23T11:27:02;96888.84;;;26.94;87.20
32761;BME280;19126;47.472;7.850;2022-07-23T11:29:46;96880.16;;;27.13;88.78
32761;BME280;19126;47.472;7.850;2022-07-23T11:32:39;96880.16;;;27.18;84.28
32761;BME280;19126;47.472;7.850;2022-07-23T11:35:29;96890.84;;;27.49;83.99
32761;BME280;19126;47.472;7.850;2022-07-23T11:38:05;96884.94;;;27.37;81.15
32761;BME280;19126;47.472;7.850;2022-07-23T11:40:33;96883.22;;;27.61;86.66
32761;BME280;19126;47.472;7.850;2022-07-23T11:43:05;96883.63;;;27.84;88.87
32761;BME280;19126;47.472;7.850;2022-07-23T11:45:36;96879.72;;;28.01;83.59
32761;BME280;19126;47.472;7.850;2022-07-23T11:48:07;96878.34;;;28.43;76.84
32761;BME280;19126;47.472;7.850;2022-07-23T11:50:36;96879.75;;;28.94;75.64
32761;BME280;19126;47.472;7.850;2022-07-23T11:53:03;96880.72;;;28.79;73.32
32761;BME280;19126;47.472;7.850;2022-07-23T11:55:31;96878.72;;;28.61;71.82
32761;BME280;19126;47.472;7.850;2022-07-23T11:57:59;96875.63;;;28.73;69.41
32761;BME280;19126;47.472;7.850;2022-07-23T12:00:30;96870.94;;;28.54;66.74
32761;BME280;19126;47.472;7.850;2022-07-23T12:03:00;96882.22;;;28.61;72.70
32761;BME280;19126;47.472;7.850;2022-07-23T12:05:30;96869.13;;;28.44;71.65
32761;BME280;19126;47.472;7.850;2022-07-23T12:07:59;96873.19;;;28.47;71.07
32761;BME280;19126;47.472;7.850;2022-07-23T12:10:28;96867.56;;;28.67;69.94
32761;BME280;19126;47.472;7.850;2022-07-23T12:12:58;96860.13;;;28.84;69.64
32761;BME280;19126;47.472;7.850;2022-07-23T12:15:30;96861.16;;;29.12;71.44
32761;BME280;19126;47.472;7.850;2022-07-23T12:17:59;96852.34;;;29.25;65.08
32761;BME280;19126;47.472;7.850;2022-07-23T12:20:29;96850.66;;;29.30;65.93
32761;BME280;19126;47.472;7.850;2022-07-23T12:23:00;96858.91;;;29.63;65.85
32761;BME280;19126;47.472;7.850;2022-07-23T12:25:30;96869.75;;;29.44;66.44
32761;BME280;19126;47.472;7.850;2022-07-23T12:28:04;96861.28;;;29.26;63.00
32761;BME280;19126;47.472;7.850;2022-07-23T12:30:38;96848.50;;;29.07;64.54
32761;BME280;19126;47.472;7.850;2022-07-23T12:33:09;96861.09;;;28.93;64.11
32761;BME280;19126;47.472;7.850;2022-07-23T12:35:39;96855.47;;;28.89;66.38
32761;BME280;19126;47.472;7.850;2022-07-23T12:38:09;96851.50;;;29.06;62.43
32761;BME280;19126;47.472;7.850;2022-07-23T12:40:42;96856.97;;;29.01;65.83
32761;BME280;19126;47.472;7.850;2022-07-23T12:43:18;96862.44;;;28.95;65.76
32761;BME280;19126;47.472;7.850;2022-07-23T12:45:49;96862.84;;;28.84;66.09
32761;BME280;19126;47.472;7.850;2022-07-23T12:48:21;96859.53;;;28.62;68.74
32761;BME280;19126;47.472;7.850;2022-07-23T12:50:52;96859.22;;;28.64;68.03
32761;BME280;19126;47.472;7.850;2022-07-23T12:53:22;96853.97;;;28.48;67.43
32761;BME280;19126;47.472;7.850;2022-07-23T12:55:56;96854.69;;;28.30;66.41
32761;BME280;19126;47.472;7.850;2022-07-23T12:58:25;96856.03;;;28.32;68.96
32761;BME280;19126;47.472;7.850;2022-07-23T13:01:03;96852.31;;;28.52;73.75
32761;BME280;19126;47.472;7.850;2022-07-23T13:03:35;96847.88;;;29.16;68.44
32761;BME280;19126;47.472;7.850;2022-07-23T13:06:07;96843.06;;;29.56;67.72
32761;BME280;19126;47.472;7.850;2022-07-23T13:08:36;96837.38;;;29.91;64.11
32761;BME280;19126;47.472;7.850;2022-07-23T13:11:05;96837.91;;;30.12;63.76
32761;BME280;19126;47.472;7.850;2022-07-23T13:13:34;96832.22;;;30.27;62.43